AirNav   Air Wisconsin Up To $57,000 Bonus
 
 378 users online  

72TX Johnson Space Center Heliport
Houston, Texas, USA

GOING TO HOUSTON?


FAA INFORMATION EFFECTIVE 15 JULY 2021

Location

FAA Identifier: 72TX
Lat/Long: 29-33-44.0000N 095-05-27.0000W
29-33.733333N 095-05.450000W
29.5622222,-95.0908333
(estimated)
Elevation: 17 ft. / 5 m (estimated)
Variation: 05E (1990)
From city: 21 miles SE of HOUSTON, TX
Time zone: UTC -5 (UTC -6 during Standard Time)
Zip code: 77058

Heliport Operations

Heliport use: Private use. Permission required prior to landing
Activation date: 11/1992
Control tower: no
ARTCC: HOUSTON CENTER
FSS: MONTGOMERY COUNTY FLIGHT SERVICE STATION
Attendance: UNATNDD
Wind indicator: yes
Segmented circle: no

Heliport Communications

WX AWOS-3 at EFD (4 nm NW): 135.575 (713-847-4430)
WX AWOS-3PT at T41 (7 nm N): 120.275 (281-471-2206)
WX ASOS at LVJ (8 nm W): 118.525 (281-992-1853)
WX ASOS at HOU (11 nm NW): PHONE 713-847-1462

Nearby radio navigation aids

VOR radial/distance  VOR name  Freq  Var
MHFr266/17.9TRINITY VOR/DME113.6007E
VUHr320/21.1SCHOLES VOR/DME113.0006E
IAHr146/27.1HUMBLE VORTAC116.6005E

Heliport Services

Runway Information

Helipad H1

Dimensions: 70 x 70 ft. / 21 x 21 m
Surface: asphalt
Traffic pattern: leftleft

Heliport Ownership and Management from official FAA records

Ownership: Publicly-owned
Owner: NASA JOHNSON SPACE CENTER
2101 NASA PKWY MAIL CODE JP
HOUSTON, TX 77058
Phone 281-483-4658
Manager: JSC SECURITY DISPATCH
2101 NASA PKWY MAIL CODE JM4
HOUSTON, TX 77058
Phone 281-483-4658
EMAIL: JSC-DL-JA-EOC-DISPATCHERS@MAIL.NASA.GOV

Additional Remarks

A52-H1 NUMEROUS BLDGS SURROUNDING HELIPAD FROM 55O FT TO A DISTANCE OF 2600 FT; LGT POLT S AND NNE; TANK AND TOWER ESE.
PPR FOR USE OF ARPT.
FOR CD CTC HOUSTON ARTCC AT 281-230-5622.

Instrument Procedures

There are no published instrument procedures at 72TX.

Some nearby airports with instrument procedures:

KEFD - Ellington Airport (4 nm NW)
T41 - La Porte Municipal Airport (7 nm N)
KLVJ - Pearland Regional Airport (8 nm W)
KHOU - William P Hobby Airport (11 nm NW)
KHPY - Baytown Airport (15 nm NE)
54T - RWJ Airpark (17 nm NE)
 
Loc | Ops | Rwys | IFR | FBO | Links
Com | Nav | Svcs | Stats | Notes
Area around 72TX (Johnson Space Center Heliport)
 
Road maps at: MapQuest Bing Google
 
Aerial photo
No photo
 
Sectional chart

 
Airport distance calculator
Flying to Johnson Space Center Heliport? Find the distance to fly.

From to 72TX

Sunrise and sunset
Times for 02-Aug-2021
 Local
(UTC-5)
 Zulu
(UTC)
Morning civil twilight06:1611:16
Sunrise06:4211:42
Sunset20:1101:11
Evening civil twilight20:3701:37

Current date and time
Zulu (UTC)  02-Aug-2021 08:15:39
Local (UTC-5)  02-Aug-2021 03:15:39
 
METAR
KEFD 
5nm NW 
020750Z 23005KT 10SM FEW060 27/25 A3000
KT41 
7nm N 
020755Z AUTO 24005KT 10SM CLR 27/25 A3001 RMK AO2 LTG DSNT W T02650254
KLVJ 
9nm W 
020753Z AUTO 00000KT 10SM BKN095 26/24 A3002 RMK AO2 SLP164 T02560244
KHOU 
11nm NW 
020753Z 24005KT 10SM FEW030 FEW080 SCT250 28/24 A3000 RMK AO2 SLP162 T02780244
TAF
KEFD 
5nm NW 
020400Z 0204/0310 19008KT 9999 SKC QNH2999INS BECMG 0216/0217 27009KT 8000 -SHRA BKN060 QNH2997INS TEMPO 0219/0223 27015G20KT 6000 -TSRA BKN015CB BKN050 BECMG 0300/0301 VRB06KT 9999 NSW BKN055 QNH2988INS BECMG 0309/0310 27004KT 8000 -SHRA BKN020 QNH2990INS TX32/0221Z TN25/0212Z
KHOU 
11nm NW 
020520Z 0206/0306 21006KT P6SM FEW035 FM021100 VRB04KT P6SM SCT025 BKN250 FM021800 29007KT P6SM VCSH SCT030 SCT060 FM022100 31007KT P6SM VCTS SCT035CB BKN070 BKN140 FM030200 34003KT P6SM VCSH SCT025 BKN150
NOTAMs
Click for the latest NOTAMs
NOTAMs are issued by the DoD/FAA and will open in a separate window not controlled by AirNav.

 

 
 

Would you like to see your business listed on this page?

 If your business provides an interesting product or service to pilots, flight crews, aircraft, or users of the Johnson Space Center Heliport, you should consider listing it here.  To start the listing process, click on the button below
 
Add a business
 

Other Pages about Johnson Space Center Heliport

Update a link
 
Copyright © AirNav, LLC. All rights reserved. Privacy Policy  Contact